Time;durP1;ratioP1;P1;durP2;ratioP2;P2;SDS_P1;SDS_P2;PMS_P1;PMS_P2;Temp;Humidity;BMP_temperature;BMP_pressure;BME280_temperature;BME280_humidity;BME280_pressure;Samples;Min_cycle;Max_cycle;Signal;HPM_P1;HPM_P2
2022/10/20 00:00:36;;;;;;;2.57;2.07;;;7.40;99.90;6.60;101465;;;;562956;249;24134;-83
2022/10/20 00:03:04;;;;;;;3.60;2.20;;;7.40;99.90;6.60;101466;;;;562872;249;24179;-82
2022/10/20 00:05:34;;;;;;;2.40;1.87;;;7.40;99.90;6.60;101470;;;;562999;249;24082;-84
2022/10/20 00:07:59;;;;;;;5.23;2.10;;;7.40;99.90;6.60;101464;;;;562722;249;24199;-81
2022/10/20 00:10:27;;;;;;;4.40;1.90;;;7.40;99.90;6.60;101466;;;;563002;249;24098;-84
2022/10/20 00:12:58;;;;;;;5.33;2.30;;;7.40;99.90;6.60;101463;;;;562885;249;24159;-83
2022/10/20 00:15:23;;;;;;;3.20;1.60;;;7.40;99.90;6.60;101465;;;;566810;249;24093;-82
2022/10/20 00:17:51;;;;;;;2.93;2.03;;;7.40;99.90;6.60;101468;;;;563230;249;24108;-84
2022/10/20 00:20:19;;;;;;;2.40;1.80;;;7.40;99.90;6.60;101466;;;;563022;249;24152;-86
2022/10/20 00:22:47;;;;;;;4.93;2.10;;;7.40;99.90;6.60;101464;;;;563041;249;25116;-84
2022/10/20 00:25:15;;;;;;;8.33;2.40;;;7.40;99.90;6.60;101469;;;;563988;249;24100;-84
2022/10/20 00:27:43;;;;;;;1.77;1.57;;;7.40;99.90;6.60;101461;;;;564060;249;24093;-84
2022/10/20 00:30:11;;;;;;;2.77;1.80;;;7.40;99.90;6.60;101460;;;;563793;249;24122;-80
2022/10/20 00:32:38;;;;;;;5.20;1.90;;;7.40;99.90;6.60;101460;;;;567468;249;24131;-84
2022/10/20 00:35:06;;;;;;;2.73;1.50;;;7.40;99.90;6.60;101455;;;;563524;249;24092;-82
2022/10/20 00:37:35;;;;;;;3.53;2.17;;;7.40;99.90;6.60;101458;;;;565438;249;24098;-81
2022/10/20 00:40:06;;;;;;;5.00;1.87;;;7.40;99.90;6.60;101460;;;;563123;249;24102;-80
2022/10/20 00:42:31;;;;;;;2.57;1.47;;;7.40;99.90;6.60;101454;;;;575055;249;24143;-79
2022/10/20 00:45:02;;;;;;;2.50;1.70;;;7.40;99.90;6.60;101451;;;;562961;249;24166;-79
2022/10/20 00:47:41;;;;;;;3.57;1.53;;;7.40;99.90;6.60;101454;;;;574802;249;24130;-79
2022/10/20 00:50:15;;;;;;;4.13;1.80;;;7.40;99.90;6.60;101446;;;;563072;249;24140;-81
2022/10/20 00:52:43;;;;;;;6.67;2.27;;;7.40;99.90;6.60;101443;;;;562727;249;24145;-80
2022/10/20 00:55:11;;;;;;;2.33;1.90;;;7.40;99.90;6.60;101444;;;;562821;249;24114;-79
2022/10/20 00:57:39;;;;;;;3.77;2.00;;;7.40;99.90;6.60;101438;;;;565283;249;24129;-79
2022/10/20 01:00:07;;;;;;;5.00;1.90;;;7.40;99.90;6.60;101439;;;;574964;249;24192;-79
2022/10/20 01:02:34;;;;;;;2.07;1.60;;;7.40;99.90;6.60;101436;;;;565413;249;24090;-79
2022/10/20 01:05:02;;;;;;;1.73;1.40;;;7.50;99.90;6.60;101434;;;;565318;249;24147;-79
2022/10/20 01:07:31;;;;;;;2.27;1.50;;;7.40;99.90;6.60;101429;;;;566590;249;24130;-81
2022/10/20 01:09:59;;;;;;;2.00;1.80;;;7.40;99.90;6.50;101435;;;;562955;249;24097;-80
2022/10/20 01:12:30;;;;;;;3.60;1.67;;;7.40;99.90;6.50;101421;;;;562853;249;24098;-80
2022/10/20 01:14:58;;;;;;;2.10;1.20;;;7.30;99.90;6.40;101418;;;;574536;249;24102;-80
2022/10/20 01:17:47;;;;;;;3.17;1.80;;;7.30;99.90;6.40;101420;;;;566879;249;24124;-80
2022/10/20 01:20:39;;;;;;;1.70;1.60;;;7.30;99.90;6.40;101420;;;;574859;249;24123;-80
2022/10/20 01:23:37;;;;;;;3.13;1.20;;;7.20;99.90;6.40;101423;;;;566342;249;24112;-81
2022/10/20 01:26:23;;;;;;;1.30;1.20;;;7.30;99.90;6.50;101421;;;;562500;249;24094;-79
2022/10/20 01:28:57;;;;;;;2.47;1.60;;;7.30;99.90;6.50;101422;;;;566180;249;24117;-82
2022/10/20 01:31:49;;;;;;;3.50;1.83;;;7.30;99.90;6.50;101418;;;;562319;249;24148;-81
2022/10/20 01:34:50;;;;;;;1.60;1.50;;;7.30;99.90;6.50;101422;;;;573919;249;24132;-80
2022/10/20 01:37:27;;;;;;;5.77;1.80;;;7.30;99.90;6.40;101415;;;;566736;249;24137;-81
2022/10/20 01:39:58;;;;;;;2.33;1.47;;;7.20;99.90;6.40;101417;;;;563104;249;24151;-80
2022/10/20 01:42:28;;;;;;;2.73;1.70;;;7.30;99.90;6.40;101415;;;;575213;249;24159;-80
2022/10/20 01:44:54;;;;;;;2.73;1.47;;;7.20;99.90;6.40;101416;;;;567134;249;24133;-82
2022/10/20 01:47:22;;;;;;;6.77;1.83;;;7.20;99.90;6.40;101411;;;;564414;254;24148;-80
2022/10/20 01:49:50;;;;;;;1.67;1.57;;;7.20;99.90;6.40;101424;;;;575647;249;24160;-79
2022/10/20 01:52:19;;;;;;;5.17;1.33;;;7.20;99.90;6.40;101423;;;;566969;249;24135;-81
2022/10/20 01:54:47;;;;;;;2.53;1.20;;;7.30;99.90;6.40;101418;;;;575546;249;24103;-80
2022/10/20 01:57:39;;;;;;;1.13;1.07;;;7.30;99.90;6.40;101419;;;;563195;249;24082;-82
2022/10/20 02:00:10;;;;;;;1.33;1.00;;;7.20;99.90;6.40;101419;;;;562861;249;24202;-80
2022/10/20 02:03:18;;;;;;;1.03;1.03;;;7.20;99.90;6.40;101417;;;;562931;249;24132;-80
2022/10/20 02:06:06;;;;;;;1.80;1.03;;;7.20;99.90;6.40;101416;;;;575541;249;24098;-79
2022/10/20 02:08:46;;;;;;;1.37;1.13;;;7.20;99.90;6.30;101414;;;;571803;249;24097;-81
2022/10/20 02:11:32;;;;;;;3.83;1.60;;;7.10;99.90;6.20;101414;;;;562687;249;24087;-81
2022/10/20 02:13:57;;;;;;;3.90;1.50;;;7.00;99.90;6.20;101413;;;;563850;253;24157;-81
2022/10/20 02:16:28;;;;;;;1.73;1.53;;;7.00;99.90;6.10;101425;;;;566149;249;24125;-81
2022/10/20 02:18:56;;;;;;;5.17;1.73;;;6.90;99.90;6.00;101412;;;;574403;249;24106;-82
2022/10/20 02:21:24;;;;;;;3.57;1.63;;;6.90;99.90;5.90;101409;;;;574829;249;24105;-81
2022/10/20 02:23:55;;;;;;;3.90;1.70;;;6.80;99.90;5.80;101423;;;;563060;249;24125;-83
2022/10/20 02:26:20;;;;;;;2.47;1.97;;;6.70;99.90;5.80;101419;;;;566118;249;24108;-82
2022/10/20 02:28:53;;;;;;;2.47;1.73;;;6.60;99.90;5.60;101415;;;;574676;249;24097;-80
2022/10/20 02:31:21;;;;;;;4.77;2.07;;;6.50;99.90;5.50;101409;;;;562557;249;24100;-80
2022/10/20 02:33:53;;;;;;;3.17;1.80;;;6.30;99.90;5.30;101404;;;;562639;249;24129;-83
2022/10/20 02:36:17;;;;;;;2.53;1.60;;;6.10;99.90;5.20;101414;;;;565000;249;24086;-82
2022/10/20 02:38:45;;;;;;;2.83;2.23;;;6.00;99.90;5.10;101417;;;;574917;249;24093;-82
2022/10/20 02:41:13;;;;;;;5.07;2.23;;;6.00;99.90;5.00;101421;;;;575075;249;24092;-82
2022/10/20 02:43:41;;;;;;;4.63;2.47;;;5.90;99.90;5.00;101419;;;;562721;249;25519;-81
2022/10/20 02:46:09;;;;;;;3.53;2.80;;;5.80;99.90;5.00;101418;;;;562598;249;24139;-83
2022/10/20 02:48:37;;;;;;;4.10;2.83;;;5.80;99.90;4.90;101421;;;;563903;249;24088;-84
2022/10/20 02:51:05;;;;;;;3.17;2.70;;;5.80;99.90;5.00;101411;;;;563643;249;24102;-84
2022/10/20 02:53:33;;;;;;;4.60;2.73;;;5.80;99.90;4.90;101423;;;;563499;249;24142;-83
2022/10/20 02:56:01;;;;;;;4.70;2.63;;;5.80;99.90;4.90;101409;;;;567539;249;24087;-83
2022/10/20 02:58:29;;;;;;;3.67;2.13;;;5.80;99.90;4.90;101412;;;;563183;249;24143;-83
2022/10/20 03:00:57;;;;;;;2.80;2.00;;;5.80;99.90;4.90;101413;;;;563737;249;24099;-82
2022/10/20 03:03:24;;;;;;;5.67;2.40;;;5.80;99.90;4.90;101416;;;;563962;249;24171;-83
2022/10/20 03:05:52;;;;;;;3.67;2.87;;;5.80;99.90;5.00;101424;;;;563590;249;24128;-83
2022/10/20 03:08:23;;;;;;;6.23;2.70;;;5.80;99.90;5.00;101420;;;;563176;249;24096;-84
2022/10/20 03:10:48;;;;;;;2.27;2.07;;;5.80;99.90;5.00;101420;;;;567121;249;24098;-82
2022/10/20 03:13:16;;;;;;;3.43;2.00;;;5.80;99.90;5.10;101417;;;;563182;249;24097;-84
2022/10/20 03:15:48;;;;;;;3.47;2.63;;;5.90;99.90;5.10;101419;;;;563059;249;24130;-83
2022/10/20 03:18:12;;;;;;;2.87;1.93;;;5.90;99.90;5.10;101413;;;;566623;249;24101;-84
2022/10/20 03:20:40;;;;;;;7.40;2.53;;;6.00;99.90;5.10;101421;;;;562983;249;24112;-83
2022/10/20 03:23:08;;;;;;;3.10;1.73;;;5.90;99.90;5.10;101418;;;;563111;249;24150;-82
2022/10/20 03:25:36;;;;;;;2.57;2.33;;;5.90;99.90;5.10;101426;;;;562761;249;24096;-81
2022/10/20 03:28:03;;;;;;;2.93;2.20;;;5.90;99.90;5.10;101421;;;;562731;249;24137;-81
2022/10/20 03:30:31;;;;;;;2.57;2.00;;;5.90;99.90;5.10;101419;;;;562746;249;24108;-79
2022/10/20 03:32:59;;;;;;;5.97;2.50;;;5.90;99.90;5.10;101424;;;;562711;249;24113;-80
2022/10/20 03:35:28;;;;;;;2.53;1.93;;;6.00;99.90;5.10;101435;;;;562693;249;24111;-79
2022/10/20 03:37:56;;;;;;;4.43;2.30;;;6.00;99.90;5.20;101444;;;;562681;249;24106;-79
2022/10/20 03:40:24;;;;;;;2.70;1.93;;;6.00;99.90;5.20;101441;;;;562986;249;24113;-80
2022/10/20 03:42:52;;;;;;;2.83;1.90;;;6.10;99.90;5.30;101443;;;;563135;249;24102;-82
2022/10/20 03:45:20;;;;;;;2.50;2.30;;;6.20;99.90;5.30;101444;;;;568631;249;24158;-81
2022/10/20 03:47:48;;;;;;;3.03;2.33;;;6.10;99.90;5.30;101441;;;;563056;249;24078;-79
2022/10/20 03:50:16;;;;;;;1.70;1.60;;;6.20;99.90;5.30;101443;;;;563069;249;24101;-79
2022/10/20 03:52:44;;;;;;;1.93;1.80;;;6.20;99.90;5.40;101444;;;;563115;249;24122;-80
2022/10/20 03:55:12;;;;;;;3.77;1.77;;;6.20;99.90;5.40;101442;;;;562962;249;24101;-81
2022/10/20 03:57:40;;;;;;;2.80;1.50;;;6.30;99.90;5.40;101450;;;;563337;249;24176;-84
2022/10/20 04:00:08;;;;;;;1.83;1.70;;;6.30;99.90;5.40;101455;;;;564377;249;24116;-83
2022/10/20 04:02:38;;;;;;;1.37;1.27;;;6.30;99.90;5.50;101446;;;;564220;249;24115;-82
2022/10/20 04:05:10;;;;;;;1.77;1.57;;;6.30;99.90;5.50;101449;;;;567613;249;24177;-83
2022/10/20 04:07:35;;;;;;;2.23;1.47;;;6.40;99.90;5.50;101443;;;;563371;249;25185;-84
2022/10/20 04:10:03;;;;;;;1.53;1.23;;;6.40;99.90;5.50;101442;;;;563828;249;25466;-83
2022/10/20 04:12:31;;;;;;;2.60;1.83;;;6.40;99.90;5.50;101450;;;;563740;249;24101;-84
2022/10/20 04:14:59;;;;;;;4.67;1.70;;;6.40;99.90;5.50;101450;;;;564064;249;24197;-83
2022/10/20 04:17:28;;;;;;;2.00;1.43;;;6.40;99.90;5.50;101449;;;;563936;249;24108;-82
2022/10/20 04:19:55;;;;;;;4.03;1.73;;;6.40;99.90;5.50;101446;;;;563793;249;24093;-84
2022/10/20 04:22:24;;;;;;;6.03;1.93;;;6.40;99.90;5.50;101446;;;;563486;249;24093;-82
2022/10/20 04:24:52;;;;;;;2.47;1.50;;;6.40;99.90;5.50;101443;;;;576031;248;24155;-83
2022/10/20 04:27:20;;;;;;;2.17;1.53;;;6.40;99.90;5.50;101440;;;;563654;249;24133;-83
2022/10/20 04:29:48;;;;;;;2.63;1.50;;;6.40;99.90;5.50;101446;;;;563475;249;24108;-84
2022/10/20 04:32:15;;;;;;;5.43;1.90;;;6.40;99.90;5.50;101440;;;;565792;249;24082;-83
2022/10/20 04:34:43;;;;;;;2.67;1.83;;;6.40;99.90;5.50;101436;;;;563401;249;24112;-83
2022/10/20 04:37:11;;;;;;;2.53;1.50;;;6.30;99.90;5.40;101427;;;;563298;249;24102;-84
2022/10/20 04:39:39;;;;;;;1.33;1.23;;;6.30;99.90;5.40;101435;;;;563255;249;24080;-84
2022/10/20 04:42:07;;;;;;;3.60;1.30;;;6.20;99.90;5.30;101426;;;;578511;237;24092;-77
2022/10/20 04:44:35;;;;;;;3.73;1.60;;;6.20;99.90;5.30;101433;;;;584617;241;24083;-78
2022/10/20 04:47:03;;;;;;;1.70;1.53;;;6.10;99.90;5.20;101426;;;;584408;241;24065;-78
2022/10/20 04:49:31;;;;;;;1.30;1.00;;;6.10;99.90;5.10;101424;;;;582292;241;24057;-78
2022/10/20 04:52:02;;;;;;;1.70;1.23;;;6.00;99.90;5.10;101422;;;;584508;241;24083;-79
2022/10/20 04:54:28;;;;;;;1.80;1.70;;;5.90;99.90;5.00;101422;;;;583747;241;24066;-80
2022/10/20 04:56:57;;;;;;;2.50;1.95;;;5.90;99.90;4.90;101416;;;;589990;237;35025;-79
2022/10/20 04:59:24;;;;;;;2.00;1.30;;;5.80;99.90;4.80;101429;;;;584075;241;24061;-80
2022/10/20 05:01:52;;;;;;;2.03;1.40;;;5.70;99.90;4.70;101423;;;;595579;237;24019;-79
2022/10/20 05:04:20;;;;;;;1.30;1.20;;;5.60;99.90;4.60;101423;;;;584139;241;24046;-80
2022/10/20 05:06:48;;;;;;;3.50;2.00;;;5.50;99.90;4.50;101421;;;;595891;237;25089;-77
2022/10/20 05:09:17;;;;;;;2.60;1.77;;;5.30;99.90;4.50;101415;;;;583915;241;24108;-79
2022/10/20 05:11:45;;;;;;;4.93;2.90;;;5.30;99.90;4.40;101419;;;;597058;236;24056;-79
2022/10/20 05:14:13;;;;;;;5.67;2.43;;;5.30;99.90;4.30;101422;;;;585104;241;24086;-79
2022/10/20 05:16:41;;;;;;;2.93;2.50;;;5.20;99.90;4.20;101420;;;;588628;239;24048;-80
2022/10/20 05:19:08;;;;;;;4.53;2.80;;;5.10;99.90;4.20;101417;;;;582831;240;24058;-80
2022/10/20 05:21:36;;;;;;;3.70;2.53;;;5.10;99.90;4.20;101418;;;;593649;241;24078;-79
2022/10/20 05:24:07;;;;;;;3.00;2.73;;;5.00;99.90;4.20;101419;;;;587857;234;24044;-80
2022/10/20 05:26:36;;;;;;;2.57;2.37;;;5.00;99.90;4.10;101421;;;;584264;241;24088;-78
2022/10/20 05:29:01;;;;;;;3.27;2.40;;;5.00;99.90;4.10;101424;;;;584594;241;24127;-79
2022/10/20 05:31:29;;;;;;;4.13;3.30;;;5.00;99.90;4.20;101415;;;;595613;237;24059;-78
2022/10/20 05:33:57;;;;;;;3.07;2.77;;;5.10;99.90;4.20;101426;;;;587764;240;24127;-78
2022/10/20 05:36:28;;;;;;;3.80;3.27;;;5.00;99.90;4.20;101432;;;;593110;241;25145;-80
2022/10/20 05:38:52;;;;;;;5.90;3.10;;;5.10;99.90;4.30;101436;;;;600513;238;24038;-79
2022/10/20 05:41:23;;;;;;;4.13;2.93;;;5.10;99.90;4.30;101426;;;;583530;241;24087;-78
2022/10/20 05:43:51;;;;;;;4.67;2.80;;;5.10;99.90;4.30;101428;;;;588149;240;24069;-78
2022/10/20 05:46:23;;;;;;;3.03;2.53;;;5.20;99.90;4.30;101440;;;;588433;239;24111;-78
2022/10/20 05:48:47;;;;;;;4.03;2.70;;;5.20;99.90;4.40;101429;;;;593210;241;24064;-78
2022/10/20 05:51:18;;;;;;;4.80;3.90;;;5.30;99.90;4.40;101433;;;;587684;240;24035;-80
2022/10/20 05:53:48;;;;;;;7.00;4.07;;;5.20;99.90;4.40;101444;;;;588186;240;24017;-78
2022/10/20 05:56:16;;;;;;;3.73;3.30;;;5.20;99.90;4.40;101434;;;;593423;241;26261;-80
2022/10/20 05:58:46;;;;;;;7.03;4.07;;;5.20;99.90;4.30;101446;;;;597551;235;24133;-79
2022/10/20 06:01:17;;;;;;;4.63;3.03;;;5.20;99.90;4.30;101456;;;;593414;241;24104;-78
2022/10/20 06:03:46;;;;;;;3.87;3.13;;;5.20;99.90;4.30;101438;;;;584710;241;24122;-82
2022/10/20 06:06:15;;;;;;;4.23;3.37;;;5.10;99.90;4.30;101451;;;;583832;241;25142;-83
2022/10/20 06:08:43;;;;;;;4.87;3.27;;;5.10;99.90;4.30;101449;;;;588039;240;24125;-82
2022/10/20 06:11:11;;;;;;;6.40;3.20;;;5.10;99.90;4.20;101451;;;;582176;241;25089;-84
2022/10/20 06:13:39;;;;;;;4.03;3.23;;;5.10;99.90;4.20;101443;;;;593142;238;24079;-79
2022/10/20 06:16:07;;;;;;;8.43;5.33;;;5.10;99.90;4.20;101442;;;;587253;240;24153;-79
2022/10/20 06:18:37;;;;;;;9.37;4.63;;;5.10;99.90;4.20;101455;;;;587894;240;24017;-78
2022/10/20 06:21:02;;;;;;;8.70;4.43;;;5.10;99.90;4.20;101455;;;;581499;241;24101;-79
2022/10/20 06:23:30;;;;;;;6.63;4.40;;;5.00;99.90;4.20;101449;;;;589559;241;24120;-80
2022/10/20 06:26:01;;;;;;;9.27;6.03;;;5.10;99.90;4.20;101446;;;;592627;238;24066;-80
2022/10/20 06:28:32;;;;;;;7.70;6.07;;;5.10;99.90;4.30;101461;;;;596058;236;24179;-79
2022/10/20 06:31:00;;;;;;;7.80;6.30;;;5.10;99.90;4.30;101451;;;;597113;236;24083;-80
2022/10/20 06:33:25;;;;;;;8.53;5.27;;;5.10;99.90;4.30;101459;;;;589376;238;24027;-78
2022/10/20 06:35:53;;;;;;;4.80;4.30;;;5.20;99.90;4.30;101460;;;;591434;238;24112;-79
2022/10/20 06:38:21;;;;;;;5.83;3.93;;;5.20;99.90;4.30;101466;;;;591671;238;25088;-80
2022/10/20 06:40:49;;;;;;;10.10;3.87;;;5.20;99.90;4.30;101466;;;;591871;238;24016;-78
2022/10/20 06:43:17;;;;;;;5.47;4.53;;;5.20;99.90;4.40;101461;;;;591693;238;24022;-79
2022/10/20 06:45:45;;;;;;;4.37;3.93;;;5.20;99.90;4.40;101458;;;;591594;238;24009;-80
2022/10/20 06:48:13;;;;;;;3.50;3.23;;;5.30;99.90;4.50;101458;;;;591487;238;24079;-80
2022/10/20 06:50:42;;;;;;;4.27;3.37;;;5.40;99.90;4.50;101469;;;;592051;238;25161;-80
2022/10/20 06:53:12;;;;;;;4.27;3.13;;;5.40;99.90;4.60;101462;;;;591991;238;24113;-82
2022/10/20 06:55:40;;;;;;;3.07;2.30;;;5.50;99.90;4.90;101470;;;;592111;238;24058;-80
2022/10/20 06:58:13;;;;;;;2.10;2.00;;;6.80;99.90;6.30;101478;;;;592114;239;24027;-80
2022/10/20 07:00:37;;;;;;;6.87;3.97;;;6.80;99.90;8.70;101481;;;;599631;238;24009;-80
2022/10/20 07:03:05;;;;;;;3.83;3.07;;;8.90;99.90;12.00;101484;;;;591863;239;24079;-80
2022/10/20 07:05:34;;;;;;;2.87;1.77;;;11.80;99.90;15.10;101493;;;;591840;239;24036;-80
2022/10/20 07:08:01;;;;;;;2.20;1.30;;;14.80;99.90;17.80;101502;;;;591806;239;25123;-79
2022/10/20 07:10:29;;;;;;;1.07;1.07;;;17.50;99.90;19.00;101511;;;;591566;239;24024;-81
2022/10/20 07:12:57;;;;;;;1.63;1.40;;;19.30;98.50;18.80;101501;;;;591469;239;24071;-79
2022/10/20 07:15:25;;;;;;;1.40;1.30;;;19.60;91.60;17.60;101501;;;;591373;239;24001;-79
2022/10/20 07:17:53;;;;;;;2.50;1.10;;;19.00;90.70;16.80;101500;;;;591525;239;24013;-78
2022/10/20 07:20:20;;;;;;;3.70;1.63;;;18.20;91.40;16.50;101507;;;;591443;239;24056;-80
2022/10/20 07:22:48;;;;;;;3.10;1.40;;;17.70;91.20;15.80;101503;;;;591507;239;24015;-80
2022/10/20 07:25:18;;;;;;;2.47;2.00;;;17.00;92.00;15.30;101507;;;;591423;239;24008;-80
2022/10/20 07:27:44;;;;;;;3.27;1.60;;;16.50;92.60;14.80;101506;;;;591849;239;24087;-79
2022/10/20 07:30:13;;;;;;;1.60;1.50;;;16.40;93.60;16.00;101508;;;;591421;239;24106;-79
2022/10/20 07:32:42;;;;;;;2.97;1.53;;;17.20;92.10;16.70;101514;;;;591500;239;24046;-82
2022/10/20 07:35:09;;;;;;;3.87;1.17;;;17.10;92.00;17.50;101511;;;;592958;238;23991;-83
2022/10/20 07:37:37;;;;;;;5.40;1.50;;;17.80;91.30;18.00;101513;;;;592569;238;24011;-83
2022/10/20 07:40:05;;;;;;;5.23;1.40;;;18.50;90.00;17.70;101518;;;;592449;238;23992;-82
2022/10/20 07:42:33;;;;;;;1.90;1.50;;;18.50;88.90;17.10;101518;;;;592405;238;24031;-83
2022/10/20 07:45:01;;;;;;;1.37;1.27;;;18.10;88.10;16.40;101512;;;;591926;238;24072;-81
2022/10/20 07:47:29;;;;;;;4.47;1.50;;;17.50;88.70;16.70;101513;;;;592101;238;24050;-80
2022/10/20 07:49:57;;;;;;;1.87;1.23;;;17.40;90.10;18.90;101510;;;;601272;238;24024;-82
2022/10/20 07:52:25;;;;;;;1.90;1.23;;;18.90;88.00;21.00;101518;;;;592007;238;24040;-81
2022/10/20 07:54:54;;;;;;;1.00;1.00;;;22.60;75.80;22.40;101528;;;;591771;238;23064;-81
2022/10/20 07:57:26;;;;;;;2.30;1.13;;;24.20;68.70;24.00;101525;;;;592114;238;23984;-82
2022/10/20 07:59:53;;;;;;;2.23;1.20;;;24.10;68.50;25.20;101532;;;;600905;238;24088;-81
2022/10/20 08:02:19;;;;;;;1.30;1.20;;;25.50;62.20;26.50;101524;;;;600858;238;24013;-88
2022/10/20 08:04:46;;;;;;;4.83;1.27;;;26.80;56.90;27.80;101542;;;;591765;238;23022;-83
2022/10/20 08:07:14;;;;;;;1.30;1.20;;;28.10;52.40;28.70;101540;;;;591750;238;23025;-85
2022/10/20 08:09:46;;;;;;;1.20;1.20;;;29.10;49.80;29.10;101545;;;;591778;239;23042;-84
2022/10/20 08:12:10;;;;;;;1.23;1.10;;;29.70;48.60;29.80;101545;;;;589577;239;23041;-84
2022/10/20 08:14:38;;;;;;;1.67;1.57;;;30.40;46.50;30.40;101553;;;;591421;239;23062;-82
2022/10/20 08:17:06;;;;;;;3.90;1.62;;;31.00;45.40;30.70;101552;;;;591509;239;23070;-85
2022/10/20 08:19:34;;;;;;;1.90;1.48;;;31.40;44.10;30.80;101539;;;;591477;239;23058;-81
2022/10/20 08:22:05;;;;;;;1.67;1.40;;;31.60;43.70;31.30;101553;;;;591609;239;23014;-81
2022/10/20 08:24:30;;;;;;;1.30;1.12;;;32.30;41.90;31.60;101545;;;;600728;236;23057;-82
2022/10/20 08:26:59;;;;;;;1.77;0.93;;;32.50;42.10;31.50;101546;;;;591967;239;23013;-82
2022/10/20 08:29:30;;;;;;;2.65;1.60;;;32.40;42.00;31.90;101551;;;;591687;239;24035;-82
2022/10/20 08:31:55;;;;;;;1.37;1.23;;;32.70;41.50;32.10;101543;;;;588074;239;24078;-81
2022/10/20 08:34:26;;;;;;;1.62;1.52;;;33.10;41.40;32.80;101555;;;;591646;239;23032;-82
2022/10/20 08:36:50;;;;;;;1.35;1.25;;;33.60;40.20;33.10;101550;;;;591323;239;23214;-84
2022/10/20 08:39:18;;;;;;;1.48;1.00;;;34.00;39.40;32.90;101558;;;;601011;239;23065;-83
2022/10/20 08:41:46;;;;;;;1.37;1.27;;;34.10;38.70;31.20;101550;;;;591520;239;23015;-82
2022/10/20 08:44:14;;;;;;;3.60;1.12;;;33.20;38.80;29.00;101561;;;;591615;238;23073;-84
2022/10/20 08:46:42;;;;;;;1.50;1.17;;;31.40;40.00;27.40;101555;;;;592923;238;23044;-84
2022/10/20 08:49:22;;;;;;;2.67;0.90;;;29.80;41.80;26.90;101559;;;;592738;238;24040;-84
2022/10/20 08:51:50;;;;;;;0.90;0.90;;;28.80;43.60;27.20;101562;;;;601568;238;23085;-81
2022/10/20 08:54:18;;;;;;;0.90;0.67;;;28.40;43.60;26.80;101560;;;;588006;238;24065;-81
2022/10/20 08:56:46;;;;;;;1.33;0.77;;;28.10;44.30;26.80;101562;;;;592069;238;23084;-80
2022/10/20 08:59:28;;;;;;;1.27;1.20;;;27.90;44.30;26.40;101560;;;;591872;238;23092;-81
2022/10/20 09:02:00;;;;;;;1.13;1.13;;;27.60;44.50;26.30;101565;;;;587757;238;23080;-87
2022/10/20 09:04:25;;;;;;;0.90;0.90;;;26.90;46.10;25.50;101563;;;;592022;235;23088;-81
2022/10/20 09:06:59;;;;;;;1.20;1.00;;;26.80;45.40;24.60;101562;;;;591206;238;23025;-83
2022/10/20 09:09:27;;;;;;;0.70;0.70;;;26.10;46.40;23.50;101564;;;;591759;238;24063;-86
2022/10/20 09:11:55;;;;;;;1.20;1.10;;;25.00;47.50;22.50;101563;;;;592311;238;24082;-83
2022/10/20 09:14:23;;;;;;;1.80;1.37;;;24.10;49.00;21.80;101558;;;;597042;238;24009;-82
2022/10/20 09:16:54;;;;;;;1.07;1.00;;;23.30;50.40;21.20;101556;;;;592006;238;24018;-83
2022/10/20 09:19:19;;;;;;;2.23;1.10;;;22.70;51.70;20.50;101547;;;;591676;238;24031;-82
2022/10/20 09:21:47;;;;;;;1.07;1.00;;;22.20;52.40;20.00;101547;;;;591577;239;23104;-81
2022/10/20 09:24:14;;;;;;;1.17;1.00;;;21.70;53.10;19.40;101551;;;;591473;239;24096;-81
2022/10/20 09:26:45;;;;;;;1.73;1.00;;;21.10;54.10;19.00;101546;;;;591620;239;24032;-80
2022/10/20 09:29:13;;;;;;;0.97;0.80;;;20.80;54.90;18.50;101542;;;;591917;239;24075;-81
2022/10/20 09:31:54;;;;;;;0.80;0.80;;;20.30;55.80;18.00;101536;;;;591363;239;24030;-80
2022/10/20 09:34:30;;;;;;;3.97;0.50;;;19.80;56.70;17.60;101540;;;;591659;239;24043;-81
2022/10/20 09:37:07;;;;;;;1.23;0.97;;;19.40;57.70;17.40;101537;;;;596442;239;24006;-81
2022/10/20 09:39:42;;;;;;;0.60;0.60;;;18.90;58.90;17.10;101539;;;;591801;239;24041;-80
2022/10/20 09:42:21;;;;;;;1.47;0.87;;;18.90;58.90;17.20;101537;;;;591621;239;24037;-81
2022/10/20 09:44:53;;;;;;;1.37;0.50;;;19.20;58.50;17.30;101529;;;;596188;239;24069;-79
2022/10/20 09:47:21;;;;;;;0.80;0.80;;;19.20;58.50;17.40;101527;;;;596349;239;24094;-79
2022/10/20 09:49:48;;;;;;;1.10;0.60;;;19.50;58.20;17.50;101537;;;;591533;239;24093;-82
2022/10/20 09:52:20;;;;;;;1.33;0.53;;;19.60;57.80;17.40;101530;;;;591248;239;24099;-81
2022/10/20 09:54:50;;;;;;;0.67;0.60;;;19.70;57.50;17.50;101525;;;;591225;239;24064;-81
2022/10/20 09:57:18;;;;;;;2.13;0.50;;;19.80;57.20;17.60;101524;;;;592365;238;24020;-80
2022/10/20 09:59:47;;;;;;;0.50;0.50;;;19.90;57.20;17.50;101517;;;;592852;238;24053;-77
2022/10/20 10:02:16;;;;;;;1.03;1.03;;;19.90;57.60;17.50;101526;;;;592782;238;24065;-80
2022/10/20 10:04:46;;;;;;;0.80;0.80;;;19.80;57.50;17.50;101513;;;;592261;238;24016;-80
2022/10/20 10:07:27;;;;;;;2.70;0.83;;;19.80;57.90;17.50;101522;;;;592047;238;24058;-81
2022/10/20 10:10:00;;;;;;;2.23;0.93;;;19.80;58.20;17.60;101518;;;;591978;238;24133;-82
2022/10/20 10:12:28;;;;;;;4.10;1.50;;;19.80;58.70;17.80;101523;;;;597023;238;24019;-82
2022/10/20 10:14:58;;;;;;;0.70;0.70;;;19.80;59.00;17.40;101519;;;;591905;238;24045;-81
2022/10/20 10:17:38;;;;;;;1.00;1.00;;;19.50;59.00;17.00;101516;;;;596748;238;24007;-82
2022/10/20 10:20:12;;;;;;;1.80;1.07;;;19.00;59.50;16.70;101509;;;;591430;238;24037;-82
2022/10/20 10:22:41;;;;;;;1.60;0.80;;;18.10;62.20;16.50;101502;;;;591802;238;24015;-82
2022/10/20 10:25:17;;;;;;;1.50;0.77;;;18.00;62.10;16.30;101506;;;;601123;236;24016;-83
2022/10/20 10:28:02;;;;;;;1.20;0.83;;;17.80;63.90;16.10;101505;;;;591919;238;24019;-79
2022/10/20 10:30:31;;;;;;;1.27;0.60;;;17.40;64.20;15.90;101503;;;;595917;238;24022;-79
2022/10/20 10:32:59;;;;;;;2.40;1.37;;;17.10;65.70;15.80;101500;;;;596787;239;24027;-79
2022/10/20 10:35:33;;;;;;;1.87;1.10;;;16.90;66.40;15.50;101499;;;;591471;239;24034;-79
2022/10/20 10:38:01;;;;;;;1.37;1.27;;;16.60;67.10;15.40;101502;;;;591592;239;24012;-79
2022/10/20 10:40:40;;;;;;;2.97;2.00;;;16.40;67.70;15.20;101505;;;;591607;239;24017;-80
2022/10/20 10:43:17;;;;;;;5.13;1.27;;;16.20;68.30;15.00;101506;;;;589746;239;24033;-80
2022/10/20 10:45:51;;;;;;;2.73;1.00;;;15.60;69.70;14.70;101494;;;;590620;239;24043;-78
2022/10/20 10:48:34;;;;;;;0.53;0.53;;;15.50;69.60;14.40;101493;;;;591262;239;24005;-82
2022/10/20 10:51:15;;;;;;;0.73;0.50;;;14.90;71.30;14.10;101494;;;;592380;239;24020;-78
2022/10/20 10:54:13;;;;;;;0.90;0.60;;;14.90;71.30;13.90;101490;;;;596527;239;24099;-80
2022/10/20 10:56:44;;;;;;;3.10;0.67;;;14.60;72.30;13.70;101477;;;;591557;239;24035;-79
2022/10/20 10:59:24;;;;;;;0.33;0.33;;;14.30;73.30;13.40;101475;;;;592141;239;24020;-80
2022/10/20 11:02:16;;;;;;;2.77;0.60;;;14.10;73.90;13.20;101473;;;;591802;239;24017;-82
2022/10/20 11:05:25;;;;;;;3.57;0.80;;;13.60;75.10;13.00;101464;;;;594512;239;24011;-81
2022/10/20 11:08:23;;;;;;;1.70;0.70;;;13.60;76.30;13.00;101468;;;;592121;239;23997;-80
2022/10/20 11:11:09;;;;;;;2.57;0.67;;;13.60;76.30;13.00;101461;;;;587393;238;24015;-83
2022/10/20 11:13:52;;;;;;;3.07;0.70;;;13.50;76.60;12.90;101458;;;;602152;236;24013;-84
2022/10/20 11:16:56;;;;;;;1.73;1.60;;;13.50;77.10;12.90;101454;;;;588355;238;24059;-78
2022/10/20 11:19:39;;;;;;;2.10;0.80;;;13.50;77.30;13.00;101454;;;;590362;238;24021;-79
2022/10/20 11:22:22;;;;;;;1.07;0.70;;;13.60;77.40;13.20;101445;;;;592668;238;24010;-81
2022/10/20 11:25:15;;;;;;;1.37;0.73;;;13.80;77.60;13.20;101438;;;;597644;238;24005;-82
2022/10/20 11:27:49;;;;;;;0.40;0.40;;;13.80;77.20;13.10;101440;;;;592505;238;24041;-85
2022/10/20 11:30:15;;;;;;;0.80;0.50;;;13.80;77.40;12.90;101433;;;;592590;238;24116;-83
2022/10/20 11:33:02;;;;;;;1.20;0.40;;;13.60;77.50;12.80;101431;;;;592598;238;24007;-83
2022/10/20 11:35:42;;;;;;;2.83;0.60;;;13.50;77.20;12.60;101421;;;;592640;238;24003;-81